sensor_id;sensor_type;location;lat;lon;timestamp;P1;durP1;ratioP1;P2;durP2;ratioP2
75851;SDS011;64500;52.632;20.656;2023-02-07T00:00:23;40.70;;;25.00;;
75851;SDS011;64500;52.632;20.656;2023-02-07T00:03:10;41.40;;;25.80;;
75851;SDS011;64500;52.632;20.656;2023-02-07T00:05:37;40.60;;;24.90;;
75851;SDS011;64500;52.632;20.656;2023-02-07T00:08:05;39.60;;;24.90;;
75851;SDS011;64500;52.632;20.656;2023-02-07T00:10:34;40.80;;;24.40;;
75851;SDS011;64500;52.632;20.656;2023-02-07T00:13:01;39.80;;;24.60;;
75851;SDS011;64500;52.632;20.656;2023-02-07T00:15:28;39.40;;;24.70;;
75851;SDS011;64500;52.632;20.656;2023-02-07T00:17:55;39.80;;;25.20;;
75851;SDS011;64500;52.632;20.656;2023-02-07T00:20:22;39.40;;;24.70;;
75851;SDS011;64500;52.632;20.656;2023-02-07T00:22:51;41.40;;;24.90;;
75851;SDS011;64500;52.632;20.656;2023-02-07T00:25:18;38.20;;;24.80;;
75851;SDS011;64500;52.632;20.656;2023-02-07T00:27:45;38.10;;;24.10;;
75851;SDS011;64500;52.632;20.656;2023-02-07T00:30:12;41.30;;;24.90;;
75851;SDS011;64500;52.632;20.656;2023-02-07T00:32:39;39.40;;;24.20;;
75851;SDS011;64500;52.632;20.656;2023-02-07T00:35:06;37.00;;;23.00;;
75851;SDS011;64500;52.632;20.656;2023-02-07T00:37:33;41.10;;;25.50;;
75851;SDS011;64500;52.632;20.656;2023-02-07T00:40:00;38.20;;;24.70;;
75851;SDS011;64500;52.632;20.656;2023-02-07T00:42:27;36.80;;;23.80;;
75851;SDS011;64500;52.632;20.656;2023-02-07T00:44:54;38.60;;;23.70;;
75851;SDS011;64500;52.632;20.656;2023-02-07T00:47:21;38.60;;;24.20;;
75851;SDS011;64500;52.632;20.656;2023-02-07T00:49:48;37.90;;;23.90;;
75851;SDS011;64500;52.632;20.656;2023-02-07T00:52:14;35.40;;;23.20;;
75851;SDS011;64500;52.632;20.656;2023-02-07T00:54:41;38.70;;;24.10;;
75851;SDS011;64500;52.632;20.656;2023-02-07T00:57:08;39.90;;;23.80;;
75851;SDS011;64500;52.632;20.656;2023-02-07T00:59:35;36.70;;;23.90;;
75851;SDS011;64500;52.632;20.656;2023-02-07T01:02:02;38.10;;;23.30;;
75851;SDS011;64500;52.632;20.656;2023-02-07T01:04:28;38.20;;;22.20;;
75851;SDS011;64500;52.632;20.656;2023-02-07T01:06:55;35.90;;;22.50;;
75851;SDS011;64500;52.632;20.656;2023-02-07T01:09:22;37.40;;;22.60;;
75851;SDS011;64500;52.632;20.656;2023-02-07T01:11:49;35.90;;;22.50;;
75851;SDS011;64500;52.632;20.656;2023-02-07T01:14:16;35.50;;;22.60;;
75851;SDS011;64500;52.632;20.656;2023-02-07T01:16:43;37.00;;;23.00;;
75851;SDS011;64500;52.632;20.656;2023-02-07T01:19:10;34.00;;;22.10;;
75851;SDS011;64500;52.632;20.656;2023-02-07T01:21:37;36.70;;;21.90;;
75851;SDS011;64500;52.632;20.656;2023-02-07T01:24:05;33.40;;;21.90;;
75851;SDS011;64500;52.632;20.656;2023-02-07T01:26:33;33.90;;;22.10;;
75851;SDS011;64500;52.632;20.656;2023-02-07T01:29:01;34.10;;;22.10;;
75851;SDS011;64500;52.632;20.656;2023-02-07T01:31:29;34.40;;;22.70;;
75851;SDS011;64500;52.632;20.656;2023-02-07T01:33:57;33.10;;;20.90;;
75851;SDS011;64500;52.632;20.656;2023-02-07T01:36:26;36.40;;;22.00;;
75851;SDS011;64500;52.632;20.656;2023-02-07T01:38:55;35.00;;;23.00;;
75851;SDS011;64500;52.632;20.656;2023-02-07T01:41:23;32.10;;;21.40;;
75851;SDS011;64500;52.632;20.656;2023-02-07T01:44:02;35.00;;;21.40;;
75851;SDS011;64500;52.632;20.656;2023-02-07T01:46:52;34.50;;;20.90;;
75851;SDS011;64500;52.632;20.656;2023-02-07T01:49:22;33.70;;;22.00;;
75851;SDS011;64500;52.632;20.656;2023-02-07T01:52:01;32.50;;;19.90;;
75851;SDS011;64500;52.632;20.656;2023-02-07T01:54:30;31.70;;;20.10;;
75851;SDS011;64500;52.632;20.656;2023-02-07T01:57:00;35.30;;;21.10;;
75851;SDS011;64500;52.632;20.656;2023-02-07T01:59:32;33.90;;;21.90;;
75851;SDS011;64500;52.632;20.656;2023-02-07T02:02:01;32.40;;;20.20;;
75851;SDS011;64500;52.632;20.656;2023-02-07T02:04:30;34.30;;;21.30;;
75851;SDS011;64500;52.632;20.656;2023-02-07T02:06:57;34.30;;;21.00;;
75851;SDS011;64500;52.632;20.656;2023-02-07T02:09:25;36.00;;;22.00;;
75851;SDS011;64500;52.632;20.656;2023-02-07T02:23:22;31.60;;;19.50;;
75851;SDS011;64500;52.632;20.656;2023-02-07T02:36:48;32.60;;;19.40;;
75851;SDS011;64500;52.632;20.656;2023-02-07T02:39:44;30.90;;;19.20;;
75851;SDS011;64500;52.632;20.656;2023-02-07T02:42:18;31.60;;;19.60;;
75851;SDS011;64500;52.632;20.656;2023-02-07T02:44:54;31.00;;;18.70;;
75851;SDS011;64500;52.632;20.656;2023-02-07T02:47:26;29.70;;;19.40;;
75851;SDS011;64500;52.632;20.656;2023-02-07T02:49:56;30.50;;;18.70;;
75851;SDS011;64500;52.632;20.656;2023-02-07T02:52:25;31.40;;;19.40;;
75851;SDS011;64500;52.632;20.656;2023-02-07T02:54:54;29.80;;;19.30;;
75851;SDS011;64500;52.632;20.656;2023-02-07T03:00:15;31.70;;;20.00;;
75851;SDS011;64500;52.632;20.656;2023-02-07T03:08:53;29.40;;;19.10;;
75851;SDS011;64500;52.632;20.656;2023-02-07T03:11:30;30.70;;;19.10;;
75851;SDS011;64500;52.632;20.656;2023-02-07T03:19:26;28.60;;;17.60;;
75851;SDS011;64500;52.632;20.656;2023-02-07T03:22:00;28.50;;;18.20;;
75851;SDS011;64500;52.632;20.656;2023-02-07T03:24:37;29.70;;;18.70;;
75851;SDS011;64500;52.632;20.656;2023-02-07T03:27:09;28.30;;;17.60;;
75851;SDS011;64500;52.632;20.656;2023-02-07T03:29:41;32.20;;;19.20;;
75851;SDS011;64500;52.632;20.656;2023-02-07T03:32:11;31.00;;;18.50;;
75851;SDS011;64500;52.632;20.656;2023-02-07T03:34:51;28.40;;;18.60;;
75851;SDS011;64500;52.632;20.656;2023-02-07T03:39:55;30.00;;;18.20;;
75851;SDS011;64500;52.632;20.656;2023-02-07T03:42:26;29.40;;;18.10;;
75851;SDS011;64500;52.632;20.656;2023-02-07T03:44:57;28.50;;;17.80;;
75851;SDS011;64500;52.632;20.656;2023-02-07T03:47:27;28.50;;;17.50;;
75851;SDS011;64500;52.632;20.656;2023-02-07T03:49:54;27.00;;;17.40;;
75851;SDS011;64500;52.632;20.656;2023-02-07T03:52:21;28.90;;;17.40;;
75851;SDS011;64500;52.632;20.656;2023-02-07T03:54:48;27.10;;;17.30;;
75851;SDS011;64500;52.632;20.656;2023-02-07T03:57:16;28.00;;;17.20;;
75851;SDS011;64500;52.632;20.656;2023-02-07T03:59:43;27.40;;;17.00;;
75851;SDS011;64500;52.632;20.656;2023-02-07T04:02:09;28.70;;;17.50;;
75851;SDS011;64500;52.632;20.656;2023-02-07T04:04:37;28.60;;;17.30;;
75851;SDS011;64500;52.632;20.656;2023-02-07T04:07:04;27.80;;;16.90;;
75851;SDS011;64500;52.632;20.656;2023-02-07T04:09:31;27.90;;;16.90;;
75851;SDS011;64500;52.632;20.656;2023-02-07T04:11:57;27.70;;;16.50;;
75851;SDS011;64500;52.632;20.656;2023-02-07T04:14:24;25.20;;;15.80;;
75851;SDS011;64500;52.632;20.656;2023-02-07T04:16:51;27.10;;;16.50;;
75851;SDS011;64500;52.632;20.656;2023-02-07T04:19:18;26.50;;;16.60;;
75851;SDS011;64500;52.632;20.656;2023-02-07T04:21:45;25.90;;;15.60;;
75851;SDS011;64500;52.632;20.656;2023-02-07T04:24:12;27.00;;;16.70;;
75851;SDS011;64500;52.632;20.656;2023-02-07T04:26:40;28.90;;;17.50;;
75851;SDS011;64500;52.632;20.656;2023-02-07T04:29:07;27.50;;;15.50;;
75851;SDS011;64500;52.632;20.656;2023-02-07T04:31:34;28.00;;;16.20;;
75851;SDS011;64500;52.632;20.656;2023-02-07T04:34:03;25.80;;;16.20;;
75851;SDS011;64500;52.632;20.656;2023-02-07T04:36:31;28.30;;;17.00;;
75851;SDS011;64500;52.632;20.656;2023-02-07T04:38:58;26.10;;;16.20;;
75851;SDS011;64500;52.632;20.656;2023-02-07T04:41:25;27.00;;;16.30;;
75851;SDS011;64500;52.632;20.656;2023-02-07T04:43:52;27.90;;;16.90;;
75851;SDS011;64500;52.632;20.656;2023-02-07T04:46:19;26.80;;;16.20;;
75851;SDS011;64500;52.632;20.656;2023-02-07T04:48:47;27.00;;;16.50;;
75851;SDS011;64500;52.632;20.656;2023-02-07T04:51:14;26.10;;;16.30;;
75851;SDS011;64500;52.632;20.656;2023-02-07T04:53:42;26.50;;;16.60;;
75851;SDS011;64500;52.632;20.656;2023-02-07T04:56:09;28.20;;;16.70;;
75851;SDS011;64500;52.632;20.656;2023-02-07T04:58:36;24.80;;;16.10;;
75851;SDS011;64500;52.632;20.656;2023-02-07T05:01:04;26.10;;;15.90;;
75851;SDS011;64500;52.632;20.656;2023-02-07T05:03:31;26.40;;;15.90;;
75851;SDS011;64500;52.632;20.656;2023-02-07T05:05:58;24.30;;;14.40;;
75851;SDS011;64500;52.632;20.656;2023-02-07T05:08:25;27.70;;;15.90;;
75851;SDS011;64500;52.632;20.656;2023-02-07T05:10:53;25.10;;;15.00;;
75851;SDS011;64500;52.632;20.656;2023-02-07T05:13:21;25.40;;;16.00;;
75851;SDS011;64500;52.632;20.656;2023-02-07T05:15:50;26.40;;;15.80;;
75851;SDS011;64500;52.632;20.656;2023-02-07T05:18:17;26.60;;;15.70;;
75851;SDS011;64500;52.632;20.656;2023-02-07T05:20:46;24.30;;;15.30;;
75851;SDS011;64500;52.632;20.656;2023-02-07T05:23:14;24.60;;;15.40;;
75851;SDS011;64500;52.632;20.656;2023-02-07T05:25:41;24.20;;;15.00;;
75851;SDS011;64500;52.632;20.656;2023-02-07T05:28:09;25.20;;;15.90;;
75851;SDS011;64500;52.632;20.656;2023-02-07T05:30:36;25.40;;;15.60;;
75851;SDS011;64500;52.632;20.656;2023-02-07T05:33:03;25.60;;;15.40;;
75851;SDS011;64500;52.632;20.656;2023-02-07T05:35:34;25.30;;;15.20;;
75851;SDS011;64500;52.632;20.656;2023-02-07T05:38:07;26.00;;;15.40;;
75851;SDS011;64500;52.632;20.656;2023-02-07T05:40:36;24.90;;;15.00;;
75851;SDS011;64500;52.632;20.656;2023-02-07T05:43:04;23.10;;;14.60;;
75851;SDS011;64500;52.632;20.656;2023-02-07T05:45:32;25.00;;;15.30;;
75851;SDS011;64500;52.632;20.656;2023-02-07T05:48:00;25.00;;;14.80;;
75851;SDS011;64500;52.632;20.656;2023-02-07T05:50:28;22.90;;;14.20;;
75851;SDS011;64500;52.632;20.656;2023-02-07T05:52:55;23.40;;;15.10;;
75851;SDS011;64500;52.632;20.656;2023-02-07T05:55:21;24.70;;;15.50;;
75851;SDS011;64500;52.632;20.656;2023-02-07T05:57:50;23.50;;;15.10;;
75851;SDS011;64500;52.632;20.656;2023-02-07T06:00:18;24.50;;;15.30;;
75851;SDS011;64500;52.632;20.656;2023-02-07T06:02:46;23.10;;;14.80;;
75851;SDS011;64500;52.632;20.656;2023-02-07T06:05:14;26.00;;;14.80;;
75851;SDS011;64500;52.632;20.656;2023-02-07T06:07:43;23.30;;;14.00;;
75851;SDS011;64500;52.632;20.656;2023-02-07T06:10:10;23.10;;;13.70;;
75851;SDS011;64500;52.632;20.656;2023-02-07T06:12:38;24.10;;;14.30;;
75851;SDS011;64500;52.632;20.656;2023-02-07T06:15:06;23.30;;;13.90;;
75851;SDS011;64500;52.632;20.656;2023-02-07T06:17:34;22.30;;;13.80;;
75851;SDS011;64500;52.632;20.656;2023-02-07T06:20:01;24.30;;;14.40;;
75851;SDS011;64500;52.632;20.656;2023-02-07T06:22:28;22.30;;;14.40;;
75851;SDS011;64500;52.632;20.656;2023-02-07T06:24:55;21.00;;;13.90;;
75851;SDS011;64500;52.632;20.656;2023-02-07T06:27:21;22.10;;;13.60;;
75851;SDS011;64500;52.632;20.656;2023-02-07T06:29:48;22.00;;;13.50;;
75851;SDS011;64500;52.632;20.656;2023-02-07T06:32:15;22.20;;;13.40;;
75851;SDS011;64500;52.632;20.656;2023-02-07T06:34:42;21.50;;;13.20;;
75851;SDS011;64500;52.632;20.656;2023-02-07T06:37:09;23.40;;;13.60;;
75851;SDS011;64500;52.632;20.656;2023-02-07T06:39:36;21.80;;;13.60;;
75851;SDS011;64500;52.632;20.656;2023-02-07T06:42:03;22.80;;;14.00;;
75851;SDS011;64500;52.632;20.656;2023-02-07T06:44:31;21.90;;;13.90;;
75851;SDS011;64500;52.632;20.656;2023-02-07T06:46:58;24.00;;;14.20;;
75851;SDS011;64500;52.632;20.656;2023-02-07T06:49:25;23.00;;;14.50;;
75851;SDS011;64500;52.632;20.656;2023-02-07T06:51:52;22.00;;;14.00;;
75851;SDS011;64500;52.632;20.656;2023-02-07T06:54:19;72.10;;;17.30;;
75851;SDS011;64500;52.632;20.656;2023-02-07T06:56:46;309.30;;;29.40;;
75851;SDS011;64500;52.632;20.656;2023-02-07T06:59:12;536.10;;;49.10;;
75851;SDS011;64500;52.632;20.656;2023-02-07T07:01:39;781.30;;;65.00;;
75851;SDS011;64500;52.632;20.656;2023-02-07T07:04:07;936.00;;;77.80;;
75851;SDS011;64500;52.632;20.656;2023-02-07T07:06:34;805.90;;;70.60;;
75851;SDS011;64500;52.632;20.656;2023-02-07T07:09:02;817.10;;;73.90;;
75851;SDS011;64500;52.632;20.656;2023-02-07T07:11:29;693.60;;;64.50;;
75851;SDS011;64500;52.632;20.656;2023-02-07T07:13:57;708.70;;;65.00;;
75851;SDS011;64500;52.632;20.656;2023-02-07T07:16:25;644.00;;;68.00;;
75851;SDS011;64500;52.632;20.656;2023-02-07T07:18:52;615.00;;;57.30;;
75851;SDS011;64500;52.632;20.656;2023-02-07T07:21:19;582.10;;;57.30;;
75851;SDS011;64500;52.632;20.656;2023-02-07T07:23:46;555.50;;;53.20;;
75851;SDS011;64500;52.632;20.656;2023-02-07T07:26:13;551.90;;;54.70;;
75851;SDS011;64500;52.632;20.656;2023-02-07T07:28:40;496.00;;;47.30;;
75851;SDS011;64500;52.632;20.656;2023-02-07T07:31:07;516.40;;;51.30;;
75851;SDS011;64500;52.632;20.656;2023-02-07T07:33:34;461.90;;;51.70;;
75851;SDS011;64500;52.632;20.656;2023-02-07T07:36:02;449.60;;;44.30;;
75851;SDS011;64500;52.632;20.656;2023-02-07T07:38:30;433.60;;;45.70;;
75851;SDS011;64500;52.632;20.656;2023-02-07T07:40:57;435.30;;;46.80;;
75851;SDS011;64500;52.632;20.656;2023-02-07T07:43:25;386.80;;;39.70;;
75851;SDS011;64500;52.632;20.656;2023-02-07T07:45:53;275.10;;;28.30;;
75851;SDS011;64500;52.632;20.656;2023-02-07T07:48:23;289.20;;;27.60;;
75851;SDS011;64500;52.632;20.656;2023-02-07T07:50:50;271.90;;;26.90;;
75851;SDS011;64500;52.632;20.656;2023-02-07T07:53:18;242.10;;;26.50;;
75851;SDS011;64500;52.632;20.656;2023-02-07T07:55:49;295.40;;;32.90;;
75851;SDS011;64500;52.632;20.656;2023-02-07T07:58:18;266.40;;;27.80;;
75851;SDS011;64500;52.632;20.656;2023-02-07T08:00:46;195.20;;;23.10;;
75851;SDS011;64500;52.632;20.656;2023-02-07T08:03:14;241.40;;;27.90;;
75851;SDS011;64500;52.632;20.656;2023-02-07T08:05:42;231.70;;;27.70;;
75851;SDS011;64500;52.632;20.656;2023-02-07T08:08:10;206.30;;;23.70;;
75851;SDS011;64500;52.632;20.656;2023-02-07T08:10:37;184.10;;;24.20;;
75851;SDS011;64500;52.632;20.656;2023-02-07T08:13:04;185.90;;;23.20;;
75851;SDS011;64500;52.632;20.656;2023-02-07T08:15:32;212.70;;;24.80;;
75851;SDS011;64500;52.632;20.656;2023-02-07T08:17:59;227.80;;;26.50;;
75851;SDS011;64500;52.632;20.656;2023-02-07T08:20:26;263.10;;;29.80;;
75851;SDS011;64500;52.632;20.656;2023-02-07T08:22:53;298.50;;;30.30;;
75851;SDS011;64500;52.632;20.656;2023-02-07T08:25:22;300.90;;;29.00;;
75851;SDS011;64500;52.632;20.656;2023-02-07T08:27:49;268.40;;;30.60;;
75851;SDS011;64500;52.632;20.656;2023-02-07T08:30:17;217.30;;;26.30;;
75851;SDS011;64500;52.632;20.656;2023-02-07T08:32:44;199.70;;;24.60;;
75851;SDS011;64500;52.632;20.656;2023-02-07T08:35:11;153.10;;;20.10;;
75851;SDS011;64500;52.632;20.656;2023-02-07T08:37:38;173.30;;;21.80;;
75851;SDS011;64500;52.632;20.656;2023-02-07T08:40:05;202.90;;;23.90;;
75851;SDS011;64500;52.632;20.656;2023-02-07T08:42:33;200.00;;;24.80;;
75851;SDS011;64500;52.632;20.656;2023-02-07T08:44:59;185.40;;;23.30;;
75851;SDS011;64500;52.632;20.656;2023-02-07T08:47:26;152.50;;;21.20;;
75851;SDS011;64500;52.632;20.656;2023-02-07T08:49:53;195.60;;;24.70;;
75851;SDS011;64500;52.632;20.656;2023-02-07T08:52:20;201.20;;;23.10;;
75851;SDS011;64500;52.632;20.656;2023-02-07T08:54:47;184.50;;;21.40;;
75851;SDS011;64500;52.632;20.656;2023-02-07T08:57:14;143.50;;;20.90;;
75851;SDS011;64500;52.632;20.656;2023-02-07T08:59:41;205.00;;;24.10;;
75851;SDS011;64500;52.632;20.656;2023-02-07T09:02:09;181.80;;;23.60;;
75851;SDS011;64500;52.632;20.656;2023-02-07T09:04:37;143.50;;;20.40;;
75851;SDS011;64500;52.632;20.656;2023-02-07T09:07:07;125.80;;;19.20;;
75851;SDS011;64500;52.632;20.656;2023-02-07T09:09:35;157.60;;;21.00;;
75851;SDS011;64500;52.632;20.656;2023-02-07T09:12:02;169.90;;;23.60;;
75851;SDS011;64500;52.632;20.656;2023-02-07T09:14:29;169.30;;;23.00;;
75851;SDS011;64500;52.632;20.656;2023-02-07T09:16:56;135.50;;;20.90;;
75851;SDS011;64500;52.632;20.656;2023-02-07T09:19:23;143.10;;;20.70;;
75851;SDS011;64500;52.632;20.656;2023-02-07T09:21:50;119.90;;;20.80;;
75851;SDS011;64500;52.632;20.656;2023-02-07T09:24:17;139.30;;;21.10;;
75851;SDS011;64500;52.632;20.656;2023-02-07T09:26:44;138.50;;;19.50;;
75851;SDS011;64500;52.632;20.656;2023-02-07T09:29:14;137.60;;;19.90;;
75851;SDS011;64500;52.632;20.656;2023-02-07T09:31:42;87.90;;;16.20;;
75851;SDS011;64500;52.632;20.656;2023-02-07T09:34:09;83.10;;;17.70;;
75851;SDS011;64500;52.632;20.656;2023-02-07T09:36:37;99.30;;;18.60;;
75851;SDS011;64500;52.632;20.656;2023-02-07T09:39:04;143.70;;;23.80;;
75851;SDS011;64500;52.632;20.656;2023-02-07T09:45:24;140.30;;;25.10;;
75851;SDS011;64500;52.632;20.656;2023-02-07T09:47:35;130.50;;;25.90;;
75851;SDS011;64500;52.632;20.656;2023-02-07T09:50:05;147.70;;;28.50;;
75851;SDS011;64500;52.632;20.656;2023-02-07T09:52:46;140.10;;;26.90;;
75851;SDS011;64500;52.632;20.656;2023-02-07T09:55:19;149.80;;;30.70;;
75851;SDS011;64500;52.632;20.656;2023-02-07T09:57:51;151.30;;;31.60;;
75851;SDS011;64500;52.632;20.656;2023-02-07T10:00:27;150.60;;;34.80;;
75851;SDS011;64500;52.632;20.656;2023-02-07T10:02:58;136.70;;;33.60;;
75851;SDS011;64500;52.632;20.656;2023-02-07T10:06:05;145.50;;;36.20;;
75851;SDS011;64500;52.632;20.656;2023-02-07T10:08:39;152.00;;;40.60;;
75851;SDS011;64500;52.632;20.656;2023-02-07T10:11:09;124.70;;;34.50;;
75851;SDS011;64500;52.632;20.656;2023-02-07T10:17:09;140.40;;;41.30;;
75851;SDS011;64500;52.632;20.656;2023-02-07T10:25:35;81.40;;;25.70;;
75851;SDS011;64500;52.632;20.656;2023-02-07T10:31:15;91.10;;;24.80;;
75851;SDS011;64500;52.632;20.656;2023-02-07T10:33:39;68.30;;;20.40;;
75851;SDS011;64500;52.632;20.656;2023-02-07T10:36:13;66.30;;;20.50;;
75851;SDS011;64500;52.632;20.656;2023-02-07T10:38:49;97.70;;;20.50;;
75851;SDS011;64500;52.632;20.656;2023-02-07T10:41:40;66.50;;;18.40;;
75851;SDS011;64500;52.632;20.656;2023-02-07T10:44:09;100.60;;;22.00;;
75851;SDS011;64500;52.632;20.656;2023-02-07T10:46:39;102.10;;;20.70;;
75851;SDS011;64500;52.632;20.656;2023-02-07T10:49:42;107.50;;;22.50;;
75851;SDS011;64500;52.632;20.656;2023-02-07T10:54:56;109.10;;;22.90;;
75851;SDS011;64500;52.632;20.656;2023-02-07T10:57:25;100.90;;;22.30;;
75851;SDS011;64500;52.632;20.656;2023-02-07T11:00:04;114.60;;;23.40;;
75851;SDS011;64500;52.632;20.656;2023-02-07T11:02:48;125.30;;;22.40;;
75851;SDS011;64500;52.632;20.656;2023-02-07T11:07:59;123.10;;;23.80;;
75851;SDS011;64500;52.632;20.656;2023-02-07T11:10:33;107.40;;;21.90;;
75851;SDS011;64500;52.632;20.656;2023-02-07T11:13:00;87.80;;;20.10;;
75851;SDS011;64500;52.632;20.656;2023-02-07T11:15:35;128.80;;;23.50;;
75851;SDS011;64500;52.632;20.656;2023-02-07T11:20:52;116.70;;;23.00;;
75851;SDS011;64500;52.632;20.656;2023-02-07T11:23:21;148.50;;;24.60;;
75851;SDS011;64500;52.632;20.656;2023-02-07T11:25:51;120.40;;;22.90;;
75851;SDS011;64500;52.632;20.656;2023-02-07T11:31:07;108.50;;;22.60;;
75851;SDS011;64500;52.632;20.656;2023-02-07T11:33:38;122.80;;;21.40;;
75851;SDS011;64500;52.632;20.656;2023-02-07T11:36:09;239.80;;;30.30;;
75851;SDS011;64500;52.632;20.656;2023-02-07T11:38:40;423.30;;;37.50;;
75851;SDS011;64500;52.632;20.656;2023-02-07T11:41:17;172.80;;;26.90;;
75851;SDS011;64500;52.632;20.656;2023-02-07T11:43:52;172.50;;;27.00;;
75851;SDS011;64500;52.632;20.656;2023-02-07T11:46:23;197.40;;;27.50;;
75851;SDS011;64500;52.632;20.656;2023-02-07T11:49:07;164.40;;;28.60;;
75851;SDS011;64500;52.632;20.656;2023-02-07T11:51:49;207.90;;;30.80;;
75851;SDS011;64500;52.632;20.656;2023-02-07T11:54:22;176.90;;;27.80;;
75851;SDS011;64500;52.632;20.656;2023-02-07T11:56:53;203.20;;;29.70;;
75851;SDS011;64500;52.632;20.656;2023-02-07T12:02:33;167.70;;;28.10;;
75851;SDS011;64500;52.632;20.656;2023-02-07T12:07:52;158.00;;;27.80;;
75851;SDS011;64500;52.632;20.656;2023-02-07T12:10:27;118.00;;;25.20;;
75851;SDS011;64500;52.632;20.656;2023-02-07T12:13:09;156.30;;;25.40;;
75851;SDS011;64500;52.632;20.656;2023-02-07T12:20:56;135.50;;;27.50;;
75851;SDS011;64500;52.632;20.656;2023-02-07T12:29:42;72.90;;;20.10;;
75851;SDS011;64500;52.632;20.656;2023-02-07T12:35:27;91.80;;;21.60;;
75851;SDS011;64500;52.632;20.656;2023-02-07T12:38:14;72.60;;;22.90;;
75851;SDS011;64500;52.632;20.656;2023-02-07T12:40:59;73.50;;;21.90;;
75851;SDS011;64500;52.632;20.656;2023-02-07T12:43:47;64.30;;;21.60;;
75851;SDS011;64500;52.632;20.656;2023-02-07T12:49:17;61.10;;;17.30;;
75851;SDS011;64500;52.632;20.656;2023-02-07T12:54:46;56.90;;;18.80;;
75851;SDS011;64500;52.632;20.656;2023-02-07T12:57:32;62.00;;;20.60;;
75851;SDS011;64500;52.632;20.656;2023-02-07T13:00:27;70.80;;;23.60;;
75851;SDS011;64500;52.632;20.656;2023-02-07T13:08:49;67.00;;;21.80;;
75851;SDS011;64500;52.632;20.656;2023-02-07T13:12:17;62.00;;;22.10;;
75851;SDS011;64500;52.632;20.656;2023-02-07T13:22:04;52.80;;;20.20;;
75851;SDS011;64500;52.632;20.656;2023-02-07T13:24:37;52.00;;;20.30;;
75851;SDS011;64500;52.632;20.656;2023-02-07T13:27:10;45.90;;;20.70;;
75851;SDS011;64500;52.632;20.656;2023-02-07T13:29:42;44.60;;;18.60;;
75851;SDS011;64500;52.632;20.656;2023-02-07T13:32:30;45.60;;;19.60;;
75851;SDS011;64500;52.632;20.656;2023-02-07T13:35:18;47.10;;;18.90;;
75851;SDS011;64500;52.632;20.656;2023-02-07T14:00:18;38.20;;;15.60;;
75851;SDS011;64500;52.632;20.656;2023-02-07T14:02:54;35.00;;;16.40;;
75851;SDS011;64500;52.632;20.656;2023-02-07T14:08:02;35.30;;;16.60;;
75851;SDS011;64500;52.632;20.656;2023-02-07T14:10:42;36.10;;;16.50;;
75851;SDS011;64500;52.632;20.656;2023-02-07T14:13:22;32.90;;;16.70;;
75851;SDS011;64500;52.632;20.656;2023-02-07T14:15:56;35.10;;;17.30;;
75851;SDS011;64500;52.632;20.656;2023-02-07T14:31:54;28.70;;;15.40;;
75851;SDS011;64500;52.632;20.656;2023-02-07T14:34:28;34.90;;;15.50;;
75851;SDS011;64500;52.632;20.656;2023-02-07T14:39:30;28.60;;;15.00;;
75851;SDS011;64500;52.632;20.656;2023-02-07T14:44:59;33.30;;;15.90;;
75851;SDS011;64500;52.632;20.656;2023-02-07T14:47:26;27.60;;;15.20;;
75851;SDS011;64500;52.632;20.656;2023-02-07T14:49:56;37.30;;;15.40;;
75851;SDS011;64500;52.632;20.656;2023-02-07T14:52:27;29.00;;;15.40;;
75851;SDS011;64500;52.632;20.656;2023-02-07T14:54:58;26.60;;;14.90;;
75851;SDS011;64500;52.632;20.656;2023-02-07T15:02:52;28.50;;;14.80;;
75851;SDS011;64500;52.632;20.656;2023-02-07T15:05:31;29.70;;;14.80;;
75851;SDS011;64500;52.632;20.656;2023-02-07T15:13:17;27.80;;;15.40;;
75851;SDS011;64500;52.632;20.656;2023-02-07T15:18:27;26.60;;;15.50;;
75851;SDS011;64500;52.632;20.656;2023-02-07T15:20:58;33.60;;;15.40;;
75851;SDS011;64500;52.632;20.656;2023-02-07T15:23:27;22.90;;;14.30;;
75851;SDS011;64500;52.632;20.656;2023-02-07T15:25:58;21.90;;;13.50;;
75851;SDS011;64500;52.632;20.656;2023-02-07T15:28:33;22.80;;;14.20;;
75851;SDS011;64500;52.632;20.656;2023-02-07T15:31:02;24.40;;;14.00;;
75851;SDS011;64500;52.632;20.656;2023-02-07T15:33:32;25.90;;;14.80;;
75851;SDS011;64500;52.632;20.656;2023-02-07T15:39:21;26.40;;;14.90;;
75851;SDS011;64500;52.632;20.656;2023-02-07T15:41:50;25.60;;;14.50;;
75851;SDS011;64500;52.632;20.656;2023-02-07T15:44:21;22.10;;;13.70;;
75851;SDS011;64500;52.632;20.656;2023-02-07T15:47:00;24.80;;;13.10;;
75851;SDS011;64500;52.632;20.656;2023-02-07T15:49:35;23.50;;;13.60;;
75851;SDS011;64500;52.632;20.656;2023-02-07T15:52:12;22.90;;;13.10;;
75851;SDS011;64500;52.632;20.656;2023-02-07T15:54:56;21.70;;;13.60;;
75851;SDS011;64500;52.632;20.656;2023-02-07T15:57:35;23.50;;;13.70;;
75851;SDS011;64500;52.632;20.656;2023-02-07T16:00:19;20.40;;;13.30;;
75851;SDS011;64500;52.632;20.656;2023-02-07T16:02:59;22.50;;;12.90;;
75851;SDS011;64500;52.632;20.656;2023-02-07T16:05:30;25.70;;;13.70;;
75851;SDS011;64500;52.632;20.656;2023-02-07T16:08:27;27.10;;;12.90;;
75851;SDS011;64500;52.632;20.656;2023-02-07T16:14:24;22.00;;;13.00;;
75851;SDS011;64500;52.632;20.656;2023-02-07T16:16:38;22.50;;;13.00;;
75851;SDS011;64500;52.632;20.656;2023-02-07T16:21:43;22.20;;;12.90;;
75851;SDS011;64500;52.632;20.656;2023-02-07T16:24:19;23.50;;;13.40;;
75851;SDS011;64500;52.632;20.656;2023-02-07T16:26:49;25.10;;;13.00;;
75851;SDS011;64500;52.632;20.656;2023-02-07T16:29:18;21.10;;;12.60;;
75851;SDS011;64500;52.632;20.656;2023-02-07T16:31:49;19.90;;;11.60;;
75851;SDS011;64500;52.632;20.656;2023-02-07T16:34:17;20.90;;;12.20;;
75851;SDS011;64500;52.632;20.656;2023-02-07T16:36:50;21.90;;;13.10;;
75851;SDS011;64500;52.632;20.656;2023-02-07T16:39:20;23.20;;;12.90;;
75851;SDS011;64500;52.632;20.656;2023-02-07T16:41:53;23.10;;;14.00;;
75851;SDS011;64500;52.632;20.656;2023-02-07T16:44:27;19.40;;;12.50;;
75851;SDS011;64500;52.632;20.656;2023-02-07T16:46:56;20.60;;;12.70;;
75851;SDS011;64500;52.632;20.656;2023-02-07T16:49:24;23.90;;;12.70;;
75851;SDS011;64500;52.632;20.656;2023-02-07T16:51:52;19.70;;;12.20;;
75851;SDS011;64500;52.632;20.656;2023-02-07T16:54:19;16.90;;;12.00;;
75851;SDS011;64500;52.632;20.656;2023-02-07T16:56:48;20.00;;;12.50;;
75851;SDS011;64500;52.632;20.656;2023-02-07T16:59:18;17.20;;;12.30;;
75851;SDS011;64500;52.632;20.656;2023-02-07T17:01:48;18.70;;;12.40;;
75851;SDS011;64500;52.632;20.656;2023-02-07T17:04:16;18.90;;;12.10;;
75851;SDS011;64500;52.632;20.656;2023-02-07T17:06:46;22.40;;;12.00;;
75851;SDS011;64500;52.632;20.656;2023-02-07T17:09:23;16.00;;;11.40;;
75851;SDS011;64500;52.632;20.656;2023-02-07T17:11:51;20.80;;;11.80;;
75851;SDS011;64500;52.632;20.656;2023-02-07T17:14:19;19.50;;;12.10;;
75851;SDS011;64500;52.632;20.656;2023-02-07T17:16:47;21.20;;;12.10;;